createdAt,value
2023-09-22T00:00:44.561Z,69.79
2023-09-22T00:03:12.063Z,69.49
2023-09-22T00:05:38.990Z,69.32
2023-09-22T00:08:06.382Z,69.51
2023-09-22T00:10:34.221Z,69.33
2023-09-22T00:13:01.434Z,69.25
2023-09-22T00:15:28.624Z,69.17
2023-09-22T00:17:55.611Z,69.14
2023-09-22T00:20:23.567Z,69.44
2023-09-22T00:22:50.493Z,69.43
2023-09-22T00:25:17.497Z,69.59
2023-09-22T00:27:44.930Z,69.48
2023-09-22T00:30:12.201Z,69.45
2023-09-22T00:32:40.626Z,69.80
2023-09-22T00:35:12.377Z,70.06
2023-09-22T00:37:41.455Z,69.94
2023-09-22T00:40:14.275Z,69.96
2023-09-22T00:42:41.396Z,69.97
2023-09-22T00:45:08.655Z,69.61
2023-09-22T00:47:36.297Z,69.67
2023-09-22T00:50:03.547Z,69.97
2023-09-22T00:52:31.632Z,69.73
2023-09-22T00:54:59.533Z,70.19
2023-09-22T00:57:26.852Z,69.66
2023-09-22T00:59:55.690Z,69.92
2023-09-22T01:02:23.553Z,69.84
2023-09-22T01:04:51.105Z,69.62
2023-09-22T01:07:18.500Z,69.99
2023-09-22T01:09:45.920Z,70.11
2023-09-22T01:12:14.404Z,70.11
2023-09-22T01:14:41.677Z,70.08
2023-09-22T01:17:08.963Z,70.43
2023-09-22T01:19:37.019Z,70.47
2023-09-22T01:22:06.500Z,70.58
2023-09-22T01:24:33.493Z,70.49
2023-09-22T01:27:00.363Z,70.73
2023-09-22T01:29:27.337Z,70.59
2023-09-22T01:31:54.466Z,70.86
2023-09-22T01:34:21.854Z,70.77
2023-09-22T01:36:48.831Z,70.64
2023-09-22T01:39:17.683Z,70.81
2023-09-22T01:41:44.976Z,70.88
2023-09-22T01:44:12.276Z,70.95
2023-09-22T01:46:38.999Z,70.96
2023-09-22T01:49:06.154Z,71.22
2023-09-22T01:51:33.030Z,71.52
2023-09-22T01:54:01.231Z,71.15
2023-09-22T01:56:28.305Z,71.64
2023-09-22T01:58:55.199Z,71.71
2023-09-22T02:01:22.234Z,71.57
2023-09-22T02:03:49.377Z,71.74
2023-09-22T02:06:16.434Z,72.10
2023-09-22T02:08:44.476Z,71.63
2023-09-22T02:11:14.580Z,72.00
2023-09-22T02:13:41.814Z,72.27
2023-09-22T02:16:09.156Z,72.26
2023-09-22T02:18:36.994Z,72.75
2023-09-22T02:21:07.327Z,72.77
2023-09-22T02:23:34.436Z,72.86
2023-09-22T02:26:08.339Z,73.06
2023-09-22T02:28:35.899Z,73.11
2023-09-22T02:31:03.540Z,72.87
2023-09-22T02:33:30.926Z,72.65
2023-09-22T02:35:57.984Z,72.89
2023-09-22T02:38:26.212Z,73.05
2023-09-22T02:40:53.034Z,73.79
2023-09-22T02:43:19.920Z,73.72
2023-09-22T02:45:46.885Z,73.45
2023-09-22T02:48:14.455Z,73.47
2023-09-22T02:50:41.638Z,73.60
2023-09-22T02:53:08.610Z,73.16
2023-09-22T02:55:38.382Z,73.48
2023-09-22T02:58:05.469Z,73.90
2023-09-22T03:00:32.735Z,73.88
2023-09-22T03:02:59.872Z,74.27
2023-09-22T03:05:26.995Z,74.07
2023-09-22T03:07:56.626Z,74.00
2023-09-22T03:10:24.631Z,74.21
2023-09-22T03:12:55.363Z,74.30
2023-09-22T03:15:24.370Z,74.67
2023-09-22T03:17:52.262Z,74.74
2023-09-22T03:20:19.199Z,74.62
2023-09-22T03:22:47.213Z,74.65
2023-09-22T03:25:15.545Z,74.44
2023-09-22T03:27:44.007Z,74.42
2023-09-22T03:30:13.439Z,74.59
2023-09-22T03:32:42.764Z,74.69
2023-09-22T03:35:13.154Z,74.35
2023-09-22T03:37:41.598Z,74.37
2023-09-22T03:40:15.019Z,74.26
2023-09-22T03:42:46.629Z,74.21
2023-09-22T03:45:14.186Z,74.25
2023-09-22T03:47:42.435Z,74.13
2023-09-22T03:50:10.756Z,74.15
2023-09-22T03:52:38.358Z,74.20
2023-09-22T03:55:06.715Z,73.98
2023-09-22T03:57:34.158Z,74.35
2023-09-22T04:00:00.972Z,74.38
2023-09-22T04:02:29.319Z,74.09
2023-09-22T04:04:57.997Z,74.11
2023-09-22T04:07:25.628Z,73.84
2023-09-22T04:09:53.764Z,73.79
2023-09-22T04:12:20.866Z,74.01
2023-09-22T04:14:48.184Z,74.19
2023-09-22T04:17:15.245Z,73.74
2023-09-22T04:19:43.264Z,73.91
2023-09-22T04:22:12.565Z,74.21
2023-09-22T04:24:48.628Z,74.13
2023-09-22T04:27:15.939Z,74.06
2023-09-22T04:29:42.738Z,73.75
2023-09-22T04:32:09.661Z,73.48
2023-09-22T04:34:36.834Z,73.80
2023-09-22T04:37:09.887Z,73.40
2023-09-22T04:39:36.828Z,73.42
2023-09-22T04:42:03.780Z,73.25
2023-09-22T04:44:31.470Z,73.18
2023-09-22T04:46:58.869Z,73.18
2023-09-22T04:49:25.963Z,72.88
2023-09-22T04:51:53.588Z,73.26
2023-09-22T04:54:21.248Z,73.03
2023-09-22T04:56:48.897Z,73.13
2023-09-22T04:59:18.916Z,72.94
2023-09-22T05:01:45.970Z,72.94
2023-09-22T05:04:13.271Z,73.08
2023-09-22T05:06:40.284Z,72.92
2023-09-22T05:09:08.493Z,72.65
2023-09-22T05:11:36.116Z,72.94
2023-09-22T05:14:05.356Z,72.95
2023-09-22T05:16:32.797Z,72.92
2023-09-22T05:19:03.653Z,72.99
2023-09-22T05:21:30.949Z,72.76
2023-09-22T05:23:57.792Z,72.63
2023-09-22T05:26:24.866Z,72.07
2023-09-22T05:28:52.015Z,72.20
2023-09-22T05:31:20.518Z,72.39
2023-09-22T05:33:47.839Z,71.75
2023-09-22T05:36:14.944Z,71.75
2023-09-22T05:38:42.058Z,71.62
2023-09-22T05:41:10.425Z,71.86
2023-09-22T05:43:37.605Z,71.65
2023-09-22T05:46:05.122Z,71.30
2023-09-22T05:48:32.246Z,71.43
2023-09-22T05:51:00.963Z,71.45
2023-09-22T05:53:29.575Z,70.84
2023-09-22T05:56:07.804Z,70.71
2023-09-22T05:58:39.156Z,70.26
2023-09-22T06:01:11.371Z,70.51
2023-09-22T06:03:40.529Z,70.30
2023-09-22T06:06:09.896Z,69.77
2023-09-22T06:08:38.050Z,69.69
2023-09-22T06:11:09.347Z,69.26
2023-09-22T06:13:36.656Z,69.24
2023-09-22T06:16:04.274Z,69.14
2023-09-22T06:18:32.645Z,68.78
2023-09-22T06:21:01.249Z,69.31
2023-09-22T06:23:28.942Z,68.92
2023-09-22T06:26:02.165Z,68.56
2023-09-22T06:28:29.194Z,68.25
2023-09-22T06:31:00.562Z,68.40
2023-09-22T06:33:28.516Z,68.27
2023-09-22T06:36:06.908Z,67.75
2023-09-22T06:38:42.092Z,67.34
2023-09-22T06:41:09.031Z,67.01
2023-09-22T06:43:37.628Z,66.73
2023-09-22T06:46:22.601Z,66.38
2023-09-22T06:48:49.356Z,65.61
2023-09-22T06:51:20.141Z,65.56
2023-09-22T06:53:49.472Z,64.41
2023-09-22T06:56:19.468Z,64.60
2023-09-22T06:58:49.010Z,64.19
2023-09-22T07:01:18.514Z,63.84
2023-09-22T07:03:46.881Z,63.63
2023-09-22T07:06:18.171Z,63.26
2023-09-22T07:08:47.974Z,62.39
2023-09-22T07:11:15.502Z,62.62
2023-09-22T07:13:42.961Z,61.90
2023-09-22T07:16:11.225Z,61.13
2023-09-22T07:18:39.026Z,61.70
2023-09-22T07:21:09.457Z,61.39
2023-09-22T07:23:36.436Z,60.94
2023-09-22T07:26:12.740Z,60.68
2023-09-22T07:28:40.771Z,60.93
2023-09-22T07:31:14.880Z,61.02
2023-09-22T07:33:42.536Z,60.70
2023-09-22T07:36:09.529Z,60.36
2023-09-22T07:38:37.267Z,59.90
2023-09-22T07:41:04.484Z,60.08
2023-09-22T07:43:31.507Z,58.72
2023-09-22T07:45:59.437Z,58.57
2023-09-22T07:48:28.323Z,58.86
2023-09-22T07:50:55.199Z,58.31
2023-09-22T07:53:22.422Z,57.88
2023-09-22T07:55:49.412Z,56.13
2023-09-22T07:58:16.523Z,56.23
2023-09-22T08:00:48.117Z,54.07
2023-09-22T08:03:15.412Z,53.73
2023-09-22T08:05:42.548Z,53.63
2023-09-22T08:08:11.685Z,53.02
2023-09-22T08:10:42.431Z,52.76
2023-09-22T08:13:09.392Z,51.22
2023-09-22T08:15:38.730Z,51.96
2023-09-22T08:18:07.324Z,51.96
2023-09-22T08:20:35.848Z,50.78
2023-09-22T08:23:04.132Z,49.60
2023-09-22T08:25:31.100Z,49.62
2023-09-22T08:28:00.017Z,49.17
2023-09-22T08:30:27.508Z,47.74
2023-09-22T08:32:55.300Z,48.16
2023-09-22T08:35:22.874Z,47.65
2023-09-22T08:37:50.573Z,47.19
2023-09-22T08:40:18.925Z,47.47
2023-09-22T08:42:49.271Z,47.83
2023-09-22T08:45:16.840Z,46.14
2023-09-22T08:47:47.267Z,45.75
2023-09-22T08:50:16.199Z,45.19
2023-09-22T08:52:45.396Z,44.92
2023-09-22T08:55:13.812Z,44.36
2023-09-22T08:57:45.901Z,44.32
2023-09-22T09:00:21.578Z,43.91
2023-09-22T09:02:49.896Z,43.99
2023-09-22T09:05:31.062Z,43.71
2023-09-22T09:08:20.496Z,43.99
2023-09-22T09:10:50.708Z,44.30
2023-09-22T09:13:25.156Z,43.42
2023-09-22T09:15:55.654Z,43.71
2023-09-22T09:18:24.496Z,42.35
2023-09-22T09:21:16.090Z,42.94
2023-09-22T09:23:57.663Z,43.58
2023-09-22T09:26:28.182Z,42.84
2023-09-22T09:28:55.625Z,41.14
2023-09-22T09:31:43.821Z,41.46
2023-09-22T09:34:11.500Z,39.80
2023-09-22T09:36:40.349Z,39.99
2023-09-22T09:39:07.741Z,39.32
2023-09-22T09:41:35.862Z,38.89
2023-09-22T09:44:05.191Z,38.21
2023-09-22T09:46:33.759Z,38.64
2023-09-22T09:49:04.307Z,37.92
2023-09-22T09:51:38.143Z,37.00
2023-09-22T09:54:08.972Z,36.18
2023-09-22T09:56:40.566Z,35.97
2023-09-22T09:59:09.702Z,35.19
2023-09-22T10:01:36.977Z,35.59
2023-09-22T10:04:06.251Z,35.57
2023-09-22T10:06:38.421Z,35.93
2023-09-22T10:09:12.946Z,34.64
2023-09-22T10:11:40.294Z,33.89
2023-09-22T10:14:07.474Z,33.54
2023-09-22T10:16:34.647Z,35.08
2023-09-22T10:19:03.475Z,32.67
2023-09-22T10:21:30.540Z,32.73
2023-09-22T10:24:29.410Z,32.81
2023-09-22T10:26:59.887Z,32.72
2023-09-22T10:29:52.912Z,32.86
2023-09-22T10:32:26.586Z,31.88
2023-09-22T10:34:57.777Z,30.73
2023-09-22T10:37:30.356Z,29.89
2023-09-22T10:40:13.170Z,29.61
2023-09-22T10:42:41.300Z,29.46
2023-09-22T10:45:08.851Z,29.81
2023-09-22T10:47:41.607Z,30.38
2023-09-22T10:50:20.161Z,29.69
2023-09-22T10:52:51.083Z,29.80
2023-09-22T10:55:28.026Z,28.10
2023-09-22T10:57:59.025Z,28.60
2023-09-22T11:00:26.639Z,28.16
2023-09-22T11:02:54.469Z,28.25
2023-09-22T11:05:22.169Z,28.56
2023-09-22T11:07:49.530Z,27.50
2023-09-22T11:10:21.483Z,26.99
2023-09-22T11:12:50.145Z,26.26
2023-09-22T11:15:17.430Z,26.37
2023-09-22T11:17:47.500Z,26.01
2023-09-22T11:20:19.627Z,24.93
2023-09-22T11:22:49.738Z,23.94
2023-09-22T11:25:17.028Z,24.24
2023-09-22T11:27:51.649Z,24.35
2023-09-22T11:30:26.791Z,24.52
2023-09-22T11:32:54.571Z,23.68
2023-09-22T11:35:41.120Z,23.34
2023-09-22T11:38:29.152Z,23.15
2023-09-22T11:41:10.914Z,22.88
2023-09-22T11:43:45.668Z,22.26
2023-09-22T11:46:17.421Z,22.14
2023-09-22T11:48:53.407Z,21.63
2023-09-22T11:51:21.022Z,21.13
2023-09-22T11:53:50.942Z,20.86
2023-09-22T11:56:18.924Z,21.29
2023-09-22T11:58:45.692Z,21.68
2023-09-22T12:01:12.686Z,21.56
2023-09-22T12:03:39.683Z,21.17
2023-09-22T12:06:06.862Z,19.81
2023-09-22T12:08:34.603Z,19.03
2023-09-22T12:11:02.134Z,19.11
2023-09-22T12:13:29.310Z,18.10
2023-09-22T12:15:56.381Z,17.51
2023-09-22T12:18:23.210Z,17.91
2023-09-22T12:20:50.181Z,18.29
2023-09-22T12:23:17.094Z,18.17
2023-09-22T12:25:43.998Z,18.62
2023-09-22T12:28:11.091Z,19.72
2023-09-22T12:30:37.923Z,21.30
2023-09-22T12:33:05.004Z,22.36
2023-09-22T12:35:31.907Z,23.68
2023-09-22T12:37:58.930Z,25.25
2023-09-22T12:40:27.238Z,26.56
2023-09-22T12:42:54.113Z,27.67
2023-09-22T12:45:21.810Z,28.56
2023-09-22T12:47:49.055Z,29.25
2023-09-22T12:50:16.457Z,30.02
2023-09-22T12:52:43.452Z,30.39
2023-09-22T12:55:11.390Z,31.40
2023-09-22T12:57:39.987Z,32.11
2023-09-22T13:00:08.494Z,32.41
2023-09-22T13:02:35.558Z,33.07
2023-09-22T13:05:03.943Z,33.50
2023-09-22T13:07:30.974Z,33.82
2023-09-22T13:10:00.183Z,34.58
2023-09-22T13:12:27.108Z,34.38
2023-09-22T13:14:55.700Z,35.01
2023-09-22T13:17:22.824Z,34.81
2023-09-22T13:19:50.542Z,34.73
2023-09-22T13:22:18.263Z,34.89
2023-09-22T13:24:45.268Z,34.99
2023-09-22T13:27:12.275Z,35.01
2023-09-22T13:29:39.486Z,35.10
2023-09-22T13:32:08.216Z,35.25
2023-09-22T13:34:35.855Z,35.36
2023-09-22T13:37:04.181Z,35.19
2023-09-22T13:39:31.756Z,35.54
2023-09-22T13:41:59.629Z,35.90
2023-09-22T13:44:27.146Z,35.74
2023-09-22T13:46:54.704Z,35.90
2023-09-22T13:49:22.868Z,36.12
2023-09-22T13:51:50.204Z,35.74
2023-09-22T13:54:17.961Z,35.87
2023-09-22T13:56:44.802Z,36.20
2023-09-22T13:59:12.438Z,36.71
2023-09-22T14:01:39.420Z,36.40
2023-09-22T14:04:06.606Z,36.72
2023-09-22T14:06:33.618Z,36.64
2023-09-22T14:09:00.586Z,36.61
2023-09-22T14:11:27.478Z,37.15
2023-09-22T14:13:55.139Z,37.12
2023-09-22T14:16:22.305Z,37.36
2023-09-22T14:18:49.440Z,37.79
2023-09-22T14:21:16.209Z,37.72
2023-09-22T14:23:43.051Z,37.84
2023-09-22T14:26:15.927Z,37.40
2023-09-22T14:28:44.092Z,37.87
2023-09-22T14:31:18.290Z,37.69
2023-09-22T14:33:45.849Z,37.74
2023-09-22T14:36:13.273Z,37.41
2023-09-22T14:38:40.009Z,37.68
2023-09-22T14:41:08.912Z,37.67
2023-09-22T14:43:36.892Z,37.90
2023-09-22T14:46:06.719Z,38.24
2023-09-22T14:48:34.971Z,38.09
2023-09-22T14:51:08.890Z,38.13
2023-09-22T14:53:36.298Z,37.86
2023-09-22T14:56:04.329Z,37.98
2023-09-22T14:58:32.042Z,37.83
2023-09-22T15:00:59.384Z,37.78
2023-09-22T15:03:26.629Z,37.93
2023-09-22T15:05:54.013Z,37.85
2023-09-22T15:08:22.002Z,37.84
2023-09-22T15:10:53.008Z,38.21
2023-09-22T15:13:20.187Z,38.22
2023-09-22T15:15:47.227Z,38.09
2023-09-22T15:18:14.651Z,38.04
2023-09-22T15:20:41.747Z,38.30
2023-09-22T15:23:08.723Z,38.35
2023-09-22T15:25:35.638Z,38.63
2023-09-22T15:28:02.546Z,38.56
2023-09-22T15:30:29.367Z,39.16
2023-09-22T15:32:56.117Z,39.07
2023-09-22T15:35:22.943Z,39.21
2023-09-22T15:37:53.291Z,39.68
2023-09-22T15:40:20.359Z,39.57
2023-09-22T15:42:47.503Z,39.74
2023-09-22T15:45:14.513Z,40.20
2023-09-22T15:47:41.640Z,40.37
2023-09-22T15:50:11.000Z,40.49
2023-09-22T15:52:38.124Z,40.20
2023-09-22T15:55:05.394Z,40.84
2023-09-22T15:57:32.481Z,40.52
2023-09-22T15:59:59.856Z,41.02
2023-09-22T16:02:27.148Z,41.18
2023-09-22T16:04:54.189Z,41.52
2023-09-22T16:07:21.039Z,41.75
2023-09-22T16:09:47.918Z,41.74
2023-09-22T16:12:14.706Z,41.81
2023-09-22T16:14:41.584Z,42.27
2023-09-22T16:17:08.411Z,42.25
2023-09-22T16:19:35.409Z,42.48
2023-09-22T16:22:02.285Z,42.11
2023-09-22T16:24:30.991Z,42.53
2023-09-22T16:26:58.206Z,43.02
2023-09-22T16:29:25.246Z,42.37
2023-09-22T16:31:52.502Z,42.79
2023-09-22T16:34:19.630Z,42.84
2023-09-22T16:36:47.137Z,43.28
2023-09-22T16:39:14.692Z,43.24
2023-09-22T16:41:44.100Z,43.60
2023-09-22T16:44:11.893Z,43.44
2023-09-22T16:46:39.091Z,43.42
2023-09-22T16:49:06.239Z,43.64
2023-09-22T16:51:33.065Z,43.88
2023-09-22T16:54:00.057Z,44.11
2023-09-22T16:56:29.779Z,44.29
2023-09-22T16:58:56.724Z,43.83
2023-09-22T17:01:23.678Z,44.40
2023-09-22T17:03:50.727Z,44.23
2023-09-22T17:06:17.980Z,44.15
2023-09-22T17:08:45.072Z,44.93
2023-09-22T17:11:13.223Z,45.00
2023-09-22T17:13:40.590Z,44.93
2023-09-22T17:16:08.348Z,45.17
2023-09-22T17:18:35.840Z,45.46
2023-09-22T17:21:04.454Z,45.25
2023-09-22T17:23:33.301Z,45.64
2023-09-22T17:26:00.260Z,45.76
2023-09-22T17:28:28.287Z,46.10
2023-09-22T17:31:03.589Z,46.33
2023-09-22T17:33:31.018Z,46.90
2023-09-22T17:36:01.055Z,46.79
2023-09-22T17:38:28.166Z,46.75
2023-09-22T17:40:55.211Z,47.05
2023-09-22T17:43:22.263Z,47.38
2023-09-22T17:46:01.747Z,47.27
2023-09-22T17:48:29.290Z,47.72
2023-09-22T17:50:56.305Z,47.90
2023-09-22T17:53:24.274Z,48.13
2023-09-22T17:55:51.560Z,48.25
2023-09-22T17:58:18.839Z,48.14
2023-09-22T18:00:45.742Z,48.22
2023-09-22T18:03:12.669Z,48.80
2023-09-22T18:05:39.639Z,48.75
2023-09-22T18:08:06.826Z,49.00
2023-09-22T18:10:33.840Z,48.91
2023-09-22T18:13:00.953Z,48.89
2023-09-22T18:15:28.863Z,49.11
2023-09-22T18:17:57.899Z,49.34
2023-09-22T18:20:25.210Z,49.68
2023-09-22T18:22:53.143Z,49.62
2023-09-22T18:25:20.438Z,49.91
2023-09-22T18:27:48.442Z,50.32
2023-09-22T18:30:15.283Z,49.98
2023-09-22T18:32:42.174Z,50.54
2023-09-22T18:35:10.858Z,50.70
2023-09-22T18:37:39.293Z,50.83
2023-09-22T18:40:08.511Z,50.91
2023-09-22T18:42:35.466Z,50.88
2023-09-22T18:45:02.477Z,51.16
2023-09-22T18:47:29.549Z,51.25
2023-09-22T18:49:58.355Z,51.56
2023-09-22T18:52:27.274Z,51.60
2023-09-22T18:54:55.282Z,51.73
2023-09-22T18:57:30.619Z,51.84
2023-09-22T19:00:00.325Z,51.86
2023-09-22T19:02:28.767Z,52.41
2023-09-22T19:04:56.367Z,52.50
2023-09-22T19:07:25.355Z,52.66
2023-09-22T19:09:53.081Z,52.86
2023-09-22T19:12:20.958Z,52.87
2023-09-22T19:14:48.422Z,53.40
2023-09-22T19:17:21.971Z,53.63
2023-09-22T19:19:53.748Z,53.46
2023-09-22T19:22:21.630Z,53.60
2023-09-22T19:24:50.229Z,53.69
2023-09-22T19:27:19.903Z,54.08
2023-09-22T19:29:46.580Z,53.81
2023-09-22T19:32:14.007Z,54.11
2023-09-22T19:34:41.078Z,54.74
2023-09-22T19:37:08.097Z,54.54
2023-09-22T19:39:38.075Z,54.60
2023-09-22T19:42:05.125Z,54.94
2023-09-22T19:44:32.074Z,54.93
2023-09-22T19:46:59.259Z,55.05
2023-09-22T19:49:26.356Z,54.97
2023-09-22T19:51:53.346Z,55.29
2023-09-22T19:54:20.125Z,55.22
2023-09-22T19:56:47.295Z,55.31
2023-09-22T19:59:14.448Z,55.34
2023-09-22T20:01:41.445Z,55.18
2023-09-22T20:04:08.912Z,55.71
2023-09-22T20:06:36.280Z,55.62
2023-09-22T20:09:09.997Z,55.94
2023-09-22T20:11:38.445Z,56.13
2023-09-22T20:14:06.251Z,56.01
2023-09-22T20:16:35.686Z,56.16
2023-09-22T20:19:04.401Z,56.11
2023-09-22T20:21:31.748Z,56.25
2023-09-22T20:23:59.392Z,56.42
2023-09-22T20:26:27.442Z,56.36
2023-09-22T20:28:54.519Z,56.48
2023-09-22T20:31:21.491Z,56.25
2023-09-22T20:33:48.592Z,56.60
2023-09-22T20:36:16.374Z,56.65
2023-09-22T20:38:46.108Z,56.97
2023-09-22T20:41:13.609Z,57.06
2023-09-22T20:43:42.816Z,57.08
2023-09-22T20:46:13.055Z,57.28
2023-09-22T20:48:40.153Z,57.63
2023-09-22T20:51:13.234Z,57.59
2023-09-22T20:53:45.232Z,57.45
2023-09-22T20:56:12.652Z,57.58
2023-09-22T20:58:40.349Z,57.71
2023-09-22T21:01:08.151Z,57.56
2023-09-22T21:03:35.889Z,57.63
2023-09-22T21:06:03.910Z,58.07
2023-09-22T21:08:30.797Z,58.07
2023-09-22T21:10:58.022Z,58.10
2023-09-22T21:13:25.176Z,58.01
2023-09-22T21:15:54.646Z,58.40
2023-09-22T21:18:21.783Z,58.49
2023-09-22T21:20:48.816Z,58.68
2023-09-22T21:23:16.726Z,58.84
2023-09-22T21:25:48.662Z,58.80
2023-09-22T21:28:16.059Z,59.14
2023-09-22T21:35:27.779Z,59.10
2023-09-22T21:47:22.854Z,59.51
2023-09-22T21:49:52.740Z,59.57
2023-09-22T21:52:19.614Z,59.47
2023-09-22T21:54:47.075Z,59.39
2023-09-22T21:57:18.645Z,59.73
2023-09-22T21:59:45.597Z,59.99
2023-09-22T22:02:12.432Z,60.20
2023-09-22T22:04:43.848Z,60.29
2023-09-22T22:07:13.820Z,60.29
2023-09-22T22:09:40.609Z,60.25
2023-09-22T22:12:07.506Z,60.39
2023-09-22T22:14:34.455Z,60.38
2023-09-22T22:17:01.363Z,60.52
2023-09-22T22:19:28.613Z,60.73
2023-09-22T22:21:57.712Z,60.66
2023-09-22T22:24:25.847Z,60.93
2023-09-22T22:26:53.356Z,60.80
2023-09-22T22:29:21.015Z,60.90
2023-09-22T22:31:49.103Z,61.04
2023-09-22T22:38:55.194Z,61.10
2023-09-22T22:41:24.997Z,61.19
2023-09-22T22:43:51.728Z,61.20
2023-09-22T22:46:19.069Z,61.07
2023-09-22T22:48:46.825Z,61.46
2023-09-22T22:51:14.226Z,61.50
2023-09-22T22:53:42.516Z,61.49
2023-09-22T22:56:09.376Z,61.59
2023-09-22T22:58:37.109Z,61.70
2023-09-22T23:01:04.377Z,61.56
2023-09-22T23:03:31.974Z,61.67
2023-09-22T23:05:59.642Z,61.59
2023-09-22T23:08:26.703Z,61.81
2023-09-22T23:11:07.035Z,61.89
2023-09-22T23:13:47.779Z,61.85
2023-09-22T23:16:15.080Z,61.73
2023-09-22T23:18:46.096Z,62.00
2023-09-22T23:21:15.857Z,62.08
2023-09-22T23:23:44.269Z,61.99
2023-09-22T23:26:11.489Z,62.32
2023-09-22T23:28:41.105Z,62.50
2023-09-22T23:31:07.942Z,62.39
2023-09-22T23:33:35.388Z,62.42
2023-09-22T23:36:04.716Z,62.38
2023-09-22T23:38:31.777Z,62.58
2023-09-22T23:40:58.567Z,62.43
2023-09-22T23:43:28.073Z,62.50
2023-09-22T23:45:58.241Z,62.51
2023-09-22T23:48:25.375Z,62.51
2023-09-22T23:50:53.244Z,62.65
2023-09-22T23:53:23.579Z,62.57
2023-09-22T23:55:50.768Z,62.39
2023-09-22T23:58:17.584Z,62.37
